sensor_id;sensor_type;location;lat;lon;timestamp;pressure;altitude;pressure_sealevel;temperature;humidity
55032;BME280;40928;51.076;7.950;2022-12-16T00:01:46;96238.50;;;-10.62;88.83
55032;BME280;40928;51.076;7.950;2022-12-16T00:04:11;96236.88;;;-10.63;88.54
55032;BME280;40928;51.076;7.950;2022-12-16T00:06:37;96246.25;;;-10.62;88.61
55032;BME280;40928;51.076;7.950;2022-12-16T00:09:03;96248.81;;;-10.62;88.72
55032;BME280;40928;51.076;7.950;2022-12-16T00:11:29;96247.06;;;-10.61;88.54
55032;BME280;40928;51.076;7.950;2022-12-16T00:13:56;96248.94;;;-10.63;88.77
55032;BME280;40928;51.076;7.950;2022-12-16T00:16:22;96252.47;;;-10.64;88.46
55032;BME280;40928;51.076;7.950;2022-12-16T00:18:47;96245.66;;;-10.65;88.47
55032;BME280;40928;51.076;7.950;2022-12-16T00:21:13;96239.00;;;-10.68;88.60
55032;BME280;40928;51.076;7.950;2022-12-16T00:23:39;96238.06;;;-10.67;88.61
55032;BME280;40928;51.076;7.950;2022-12-16T00:26:09;96234.69;;;-10.67;88.28
55032;BME280;40928;51.076;7.950;2022-12-16T00:28:36;96232.09;;;-10.67;88.64
55032;BME280;40928;51.076;7.950;2022-12-16T00:31:03;96229.06;;;-10.73;88.73
55032;BME280;40928;51.076;7.950;2022-12-16T00:33:29;96237.75;;;-10.74;88.95
55032;BME280;40928;51.076;7.950;2022-12-16T00:35:55;96241.13;;;-10.73;88.85
55032;BME280;40928;51.076;7.950;2022-12-16T00:38:22;96242.75;;;-10.72;88.89
55032;BME280;40928;51.076;7.950;2022-12-16T00:40:48;96240.56;;;-10.77;88.58
55032;BME280;40928;51.076;7.950;2022-12-16T00:43:13;96234.00;;;-10.81;89.00
55032;BME280;40928;51.076;7.950;2022-12-16T00:45:39;96238.63;;;-10.84;88.51
55032;BME280;40928;51.076;7.950;2022-12-16T00:48:05;96233.59;;;-10.86;88.77
55032;BME280;40928;51.076;7.950;2022-12-16T00:50:31;96241.00;;;-10.93;89.08
55032;BME280;40928;51.076;7.950;2022-12-16T00:52:56;96243.84;;;-10.96;89.05
55032;BME280;40928;51.076;7.950;2022-12-16T00:55:22;96244.53;;;-10.94;88.83
55032;BME280;40928;51.076;7.950;2022-12-16T00:57:48;96239.38;;;-10.94;88.73
55032;BME280;40928;51.076;7.950;2022-12-16T01:00:14;96245.47;;;-10.95;89.24
55032;BME280;40928;51.076;7.950;2022-12-16T01:02:42;96241.50;;;-10.99;88.63
55032;BME280;40928;51.076;7.950;2022-12-16T01:05:09;96245.72;;;-10.98;89.01
55032;BME280;40928;51.076;7.950;2022-12-16T01:07:35;96245.72;;;-10.98;89.15
55032;BME280;40928;51.076;7.950;2022-12-16T01:10:00;96247.91;;;-10.93;89.02
55032;BME280;40928;51.076;7.950;2022-12-16T01:12:26;96244.53;;;-10.94;88.31
55032;BME280;40928;51.076;7.950;2022-12-16T01:14:52;96256.47;;;-10.93;88.17
55032;BME280;40928;51.076;7.950;2022-12-16T01:17:17;96252.25;;;-10.94;88.17
55032;BME280;40928;51.076;7.950;2022-12-16T01:19:43;96257.91;;;-11.00;88.23
55032;BME280;40928;51.076;7.950;2022-12-16T01:22:08;96263.19;;;-11.02;88.38
55032;BME280;40928;51.076;7.950;2022-12-16T01:24:34;96262.59;;;-11.05;88.71
55032;BME280;40928;51.076;7.950;2022-12-16T01:26:59;96267.75;;;-11.05;88.81
55032;BME280;40928;51.076;7.950;2022-12-16T01:29:25;96268.84;;;-11.08;88.51
55032;BME280;40928;51.076;7.950;2022-12-16T01:31:50;96277.97;;;-11.04;88.61
55032;BME280;40928;51.076;7.950;2022-12-16T01:34:16;96280.41;;;-11.02;88.76
55032;BME280;40928;51.076;7.950;2022-12-16T01:36:41;96283.59;;;-10.98;88.49
55032;BME280;40928;51.076;7.950;2022-12-16T01:39:10;96284.31;;;-11.08;88.19
55032;BME280;40928;51.076;7.950;2022-12-16T01:41:36;96284.53;;;-11.11;88.43
55032;BME280;40928;51.076;7.950;2022-12-16T01:44:32;96278.25;;;-11.18;88.60
55032;BME280;40928;51.076;7.950;2022-12-16T01:47:02;96275.78;;;-11.20;89.02
55032;BME280;40928;51.076;7.950;2022-12-16T01:49:37;96283.41;;;-11.18;89.02
55032;BME280;40928;51.076;7.950;2022-12-16T01:52:08;96280.00;;;-11.19;89.06
55032;BME280;40928;51.076;7.950;2022-12-16T01:54:39;96284.09;;;-11.16;88.84
55032;BME280;40928;51.076;7.950;2022-12-16T01:57:09;96284.81;;;-11.14;88.75
55032;BME280;40928;51.076;7.950;2022-12-16T01:59:38;96281.75;;;-11.19;88.62
55032;BME280;40928;51.076;7.950;2022-12-16T02:02:05;96283.28;;;-11.17;88.56
55032;BME280;40928;51.076;7.950;2022-12-16T02:04:31;96285.03;;;-11.17;88.69
55032;BME280;40928;51.076;7.950;2022-12-16T02:06:57;96283.28;;;-11.17;88.54
55032;BME280;40928;51.076;7.950;2022-12-16T02:09:23;96279.50;;;-11.12;88.46
55032;BME280;40928;51.076;7.950;2022-12-16T02:15:32;96277.53;;;-11.20;88.14
55032;BME280;40928;51.076;7.950;2022-12-16T02:18:07;96277.31;;;-11.28;87.94
55032;BME280;40928;51.076;7.950;2022-12-16T02:32:16;96284.94;;;-11.27;88.18
55032;BME280;40928;51.076;7.950;2022-12-16T02:35:11;96280.50;;;-11.25;88.49
55032;BME280;40928;51.076;7.950;2022-12-16T02:43:14;96274.16;;;-11.32;88.22
55032;BME280;40928;51.076;7.950;2022-12-16T02:45:41;96284.38;;;-11.30;88.31
55032;BME280;40928;51.076;7.950;2022-12-16T02:48:08;96283.53;;;-11.31;88.11
55032;BME280;40928;51.076;7.950;2022-12-16T02:50:38;96284.63;;;-11.34;88.35
55032;BME280;40928;51.076;7.950;2022-12-16T02:53:06;96278.06;;;-11.38;88.28
55032;BME280;40928;51.076;7.950;2022-12-16T02:58:57;96274.66;;;-11.38;89.16
55032;BME280;40928;51.076;7.950;2022-12-16T03:01:34;96275.47;;;-11.38;88.90
55032;BME280;40928;51.076;7.950;2022-12-16T03:04:28;96278.06;;;-11.38;89.33
55032;BME280;40928;51.076;7.950;2022-12-16T03:06:56;96275.72;;;-11.41;88.42
55032;BME280;40928;51.076;7.950;2022-12-16T03:09:28;96282.16;;;-11.47;88.69
55032;BME280;40928;51.076;7.950;2022-12-16T03:11:55;96279.38;;;-11.55;89.06
55032;BME280;40928;51.076;7.950;2022-12-16T03:14:24;96280.91;;;-11.52;89.53
55032;BME280;40928;51.076;7.950;2022-12-16T03:16:51;96277.25;;;-11.50;89.44
55032;BME280;40928;51.076;7.950;2022-12-16T03:19:18;96278.09;;;-11.49;89.42
55032;BME280;40928;51.076;7.950;2022-12-16T03:21:53;96278.19;;;-11.51;89.17
55032;BME280;40928;51.076;7.950;2022-12-16T03:24:20;96274.81;;;-11.51;89.10
55032;BME280;40928;51.076;7.950;2022-12-16T03:26:55;96271.53;;;-11.53;89.19
55032;BME280;40928;51.076;7.950;2022-12-16T03:29:43;96267.31;;;-11.54;89.15
55032;BME280;40928;51.076;7.950;2022-12-16T03:32:14;96276.09;;;-11.57;89.00
55032;BME280;40928;51.076;7.950;2022-12-16T03:35:16;96280.56;;;-11.59;88.86
55032;BME280;40928;51.076;7.950;2022-12-16T03:37:46;96278.78;;;-11.58;88.81
55032;BME280;40928;51.076;7.950;2022-12-16T03:40:13;96277.16;;;-11.59;89.14
55032;BME280;40928;51.076;7.950;2022-12-16T03:42:41;96272.97;;;-11.60;89.00
55032;BME280;40928;51.076;7.950;2022-12-16T03:45:11;96278.78;;;-11.58;89.21
55032;BME280;40928;51.076;7.950;2022-12-16T03:47:39;96284.63;;;-11.56;89.29
55032;BME280;40928;51.076;7.950;2022-12-16T03:50:05;96288.28;;;-11.59;89.30
55032;BME280;40928;51.076;7.950;2022-12-16T03:52:31;96281.34;;;-11.58;89.25
55032;BME280;40928;51.076;7.950;2022-12-16T03:54:57;96289.69;;;-11.55;89.18
55032;BME280;40928;51.076;7.950;2022-12-16T03:57:22;96297.16;;;-11.52;88.75
55032;BME280;40928;51.076;7.950;2022-12-16T03:59:48;96298.22;;;-11.54;89.28
55032;BME280;40928;51.076;7.950;2022-12-16T04:02:13;96299.06;;;-11.54;89.32
55032;BME280;40928;51.076;7.950;2022-12-16T04:04:39;96308.19;;;-11.61;88.67
55032;BME280;40928;51.076;7.950;2022-12-16T04:07:04;96311.34;;;-11.69;88.76
55032;BME280;40928;51.076;7.950;2022-12-16T04:09:45;96313.22;;;-11.71;89.30
55032;BME280;40928;51.076;7.950;2022-12-16T04:12:11;96314.06;;;-11.70;89.76
55032;BME280;40928;51.076;7.950;2022-12-16T04:14:55;96314.41;;;-11.64;89.48
55032;BME280;40928;51.076;7.950;2022-12-16T04:17:38;96310.91;;;-11.63;89.12
55032;BME280;40928;51.076;7.950;2022-12-16T04:20:27;96313.94;;;-11.69;89.44
55032;BME280;40928;51.076;7.950;2022-12-16T04:23:13;96311.47;;;-11.70;89.82
55032;BME280;40928;51.076;7.950;2022-12-16T04:25:57;96313.00;;;-11.68;89.64
55032;BME280;40928;51.076;7.950;2022-12-16T04:28:22;96300.81;;;-11.66;89.77
55032;BME280;40928;51.076;7.950;2022-12-16T04:30:48;96307.25;;;-11.60;89.87
55032;BME280;40928;51.076;7.950;2022-12-16T04:33:14;96310.31;;;-11.55;89.56
55032;BME280;40928;51.076;7.950;2022-12-16T04:35:59;96315.31;;;-11.53;89.05
55032;BME280;40928;51.076;7.950;2022-12-16T04:38:43;96316.84;;;-11.51;89.14
55032;BME280;40928;51.076;7.950;2022-12-16T04:41:27;96323.41;;;-11.58;88.79
55032;BME280;40928;51.076;7.950;2022-12-16T04:44:11;96321.19;;;-11.63;89.16
55032;BME280;40928;51.076;7.950;2022-12-16T04:46:56;96320.34;;;-11.63;89.19
55032;BME280;40928;51.076;7.950;2022-12-16T04:49:40;96318.50;;;-11.72;88.85
55032;BME280;40928;51.076;7.950;2022-12-16T04:52:24;96319.78;;;-11.78;89.22
55032;BME280;40928;51.076;7.950;2022-12-16T04:55:09;96319.44;;;-11.85;88.77
55032;BME280;40928;51.076;7.950;2022-12-16T04:57:55;96323.88;;;-11.87;89.87
55032;BME280;40928;51.076;7.950;2022-12-16T05:00:40;96330.69;;;-11.86;90.04
55032;BME280;40928;51.076;7.950;2022-12-16T05:03:25;96325.53;;;-11.86;89.63
55032;BME280;40928;51.076;7.950;2022-12-16T05:06:09;96327.03;;;-11.83;89.56
55032;BME280;40928;51.076;7.950;2022-12-16T05:08:54;96329.03;;;-11.75;89.82
55032;BME280;40928;51.076;7.950;2022-12-16T05:11:38;96332.41;;;-11.75;89.77
55032;BME280;40928;51.076;7.950;2022-12-16T05:14:22;96331.97;;;-11.80;89.58
55032;BME280;40928;51.076;7.950;2022-12-16T05:17:06;96342.63;;;-11.73;89.55
55032;BME280;40928;51.076;7.950;2022-12-16T05:19:50;96342.38;;;-11.70;89.65
55032;BME280;40928;51.076;7.950;2022-12-16T05:22:34;96351.50;;;-11.66;89.12
55032;BME280;40928;51.076;7.950;2022-12-16T05:25:19;96353.75;;;-11.61;89.13
55032;BME280;40928;51.076;7.950;2022-12-16T05:28:02;96360.63;;;-11.62;88.81
55032;BME280;40928;51.076;7.950;2022-12-16T05:30:47;96365.78;;;-11.73;88.94
55032;BME280;40928;51.076;7.950;2022-12-16T05:33:30;96368.59;;;-11.76;88.42
55032;BME280;40928;51.076;7.950;2022-12-16T05:36:14;96364.03;;;-11.84;89.10
55032;BME280;40928;51.076;7.950;2022-12-16T05:38:59;96365.66;;;-11.83;89.49
55032;BME280;40928;51.076;7.950;2022-12-16T05:41:43;96371.16;;;-11.88;88.71
55032;BME280;40928;51.076;7.950;2022-12-16T05:44:27;96378.91;;;-11.88;89.28
55032;BME280;40928;51.076;7.950;2022-12-16T05:47:11;96382.28;;;-11.87;89.87
55032;BME280;40928;51.076;7.950;2022-12-16T05:49:55;96382.63;;;-11.81;89.81
55032;BME280;40928;51.076;7.950;2022-12-16T05:52:48;96375.84;;;-11.82;89.57
55032;BME280;40928;51.076;7.950;2022-12-16T05:55:33;96388.97;;;-11.85;89.61
55032;BME280;40928;51.076;7.950;2022-12-16T05:58:17;96396.69;;;-11.85;89.54
55032;BME280;40928;51.076;7.950;2022-12-16T06:01:03;96393.28;;;-11.85;89.42
55032;BME280;40928;51.076;7.950;2022-12-16T06:04:07;96400.19;;;-11.86;89.86
55032;BME280;40928;51.076;7.950;2022-12-16T06:06:56;96399.72;;;-11.91;89.92
55032;BME280;40928;51.076;7.950;2022-12-16T06:09:40;96402.16;;;-11.89;90.36
55032;BME280;40928;51.076;7.950;2022-12-16T06:12:24;96417.63;;;-11.89;90.26
55032;BME280;40928;51.076;7.950;2022-12-16T06:15:08;96415.97;;;-11.90;90.16
55032;BME280;40928;51.076;7.950;2022-12-16T06:17:53;96427.81;;;-11.88;90.36
55032;BME280;40928;51.076;7.950;2022-12-16T06:20:37;96432.03;;;-11.87;89.84
55032;BME280;40928;51.076;7.950;2022-12-16T06:23:21;96433.19;;;-11.91;89.58
55032;BME280;40928;51.076;7.950;2022-12-16T06:26:06;96423.34;;;-11.97;89.83
55032;BME280;40928;51.076;7.950;2022-12-16T06:28:50;96443.72;;;-11.94;89.74
55032;BME280;40928;51.076;7.950;2022-12-16T06:31:34;96451.34;;;-11.93;89.75
55032;BME280;40928;51.076;7.950;2022-12-16T06:34:18;96454.50;;;-11.89;90.16
55032;BME280;40928;51.076;7.950;2022-12-16T06:37:02;96462.25;;;-11.78;90.31
55032;BME280;40928;51.076;7.950;2022-12-16T06:39:47;96461.59;;;-11.68;90.00
55032;BME280;40928;51.076;7.950;2022-12-16T06:42:31;96464.84;;;-11.66;89.67
55032;BME280;40928;51.076;7.950;2022-12-16T06:45:15;96473.63;;;-11.69;88.94
55032;BME280;40928;51.076;7.950;2022-12-16T06:47:59;96470.34;;;-11.71;89.42
55032;BME280;40928;51.076;7.950;2022-12-16T06:50:44;96468.25;;;-11.66;89.50
55032;BME280;40928;51.076;7.950;2022-12-16T06:53:28;96477.97;;;-11.58;89.79
55032;BME280;40928;51.076;7.950;2022-12-16T06:56:11;96485.00;;;-11.49;90.48
55032;BME280;40928;51.076;7.950;2022-12-16T06:58:56;96486.28;;;-11.54;89.22
55032;BME280;40928;51.076;7.950;2022-12-16T07:01:40;96492.59;;;-11.58;89.41
55032;BME280;40928;51.076;7.950;2022-12-16T07:04:23;96485.94;;;-11.61;88.61
55032;BME280;40928;51.076;7.950;2022-12-16T07:07:08;96492.84;;;-11.61;89.09
55032;BME280;40928;51.076;7.950;2022-12-16T07:09:51;96493.78;;;-11.63;88.80
55032;BME280;40928;51.076;7.950;2022-12-16T07:12:39;96495.75;;;-11.66;88.49
55032;BME280;40928;51.076;7.950;2022-12-16T07:15:23;96494.22;;;-11.69;89.54
55032;BME280;40928;51.076;7.950;2022-12-16T07:18:07;96495.63;;;-11.76;89.58
55032;BME280;40928;51.076;7.950;2022-12-16T07:20:51;96505.25;;;-11.67;89.10
55032;BME280;40928;51.076;7.950;2022-12-16T07:23:34;96510.63;;;-11.70;89.12
55032;BME280;40928;51.076;7.950;2022-12-16T07:26:19;96517.75;;;-11.73;89.70
55032;BME280;40928;51.076;7.950;2022-12-16T07:29:03;96523.72;;;-11.73;89.74
55032;BME280;40928;51.076;7.950;2022-12-16T07:31:47;96526.75;;;-11.79;89.14
55032;BME280;40928;51.076;7.950;2022-12-16T07:34:31;96537.97;;;-11.80;89.85
55032;BME280;40928;51.076;7.950;2022-12-16T07:37:15;96542.78;;;-11.75;89.66
55032;BME280;40928;51.076;7.950;2022-12-16T07:39:59;96548.75;;;-11.75;90.09
55032;BME280;40928;51.076;7.950;2022-12-16T07:42:45;96549.59;;;-11.74;90.45
55032;BME280;40928;51.076;7.950;2022-12-16T07:45:30;96554.97;;;-11.78;90.04
55032;BME280;40928;51.076;7.950;2022-12-16T07:48:14;96562.69;;;-11.78;90.27
55032;BME280;40928;51.076;7.950;2022-12-16T07:50:59;96565.25;;;-11.78;90.12
55032;BME280;40928;51.076;7.950;2022-12-16T07:53:43;96577.91;;;-11.74;90.25
55032;BME280;40928;51.076;7.950;2022-12-16T07:56:26;96574.41;;;-11.73;90.20
55032;BME280;40928;51.076;7.950;2022-12-16T07:59:10;96572.66;;;-11.73;89.35
55032;BME280;40928;51.076;7.950;2022-12-16T08:01:54;96572.06;;;-11.76;90.51
55032;BME280;40928;51.076;7.950;2022-12-16T08:04:38;96584.25;;;-11.67;90.45
55032;BME280;40928;51.076;7.950;2022-12-16T08:07:22;96588.25;;;-11.63;90.20
55032;BME280;40928;51.076;7.950;2022-12-16T08:10:06;96588.53;;;-11.55;90.25
55032;BME280;40928;51.076;7.950;2022-12-16T08:12:50;96591.59;;;-11.50;90.60
55032;BME280;40928;51.076;7.950;2022-12-16T08:15:35;96600.03;;;-11.48;89.87
55032;BME280;40928;51.076;7.950;2022-12-16T08:18:18;96599.09;;;-11.47;90.06
55032;BME280;40928;51.076;7.950;2022-12-16T08:21:02;96603.66;;;-11.50;90.23
55032;BME280;40928;51.076;7.950;2022-12-16T08:23:47;96599.09;;;-11.47;90.22
55032;BME280;40928;51.076;7.950;2022-12-16T08:26:30;96597.03;;;-11.41;91.00
55032;BME280;40928;51.076;7.950;2022-12-16T08:29:14;96608.75;;;-11.37;90.58
55032;BME280;40928;51.076;7.950;2022-12-16T08:31:59;96616.16;;;-11.33;90.43
55032;BME280;40928;51.076;7.950;2022-12-16T08:34:42;96619.31;;;-11.29;90.23
55032;BME280;40928;51.076;7.950;2022-12-16T08:37:26;96613.94;;;-11.26;90.26
55032;BME280;40928;51.076;7.950;2022-12-16T08:40:10;96615.38;;;-11.22;90.02
55032;BME280;40928;51.076;7.950;2022-12-16T08:42:55;96629.88;;;-11.21;89.85
55032;BME280;40928;51.076;7.950;2022-12-16T08:45:41;96618.41;;;-11.17;90.05
55032;BME280;40928;51.076;7.950;2022-12-16T08:48:25;96626.03;;;-11.15;90.26
55032;BME280;40928;51.076;7.950;2022-12-16T08:51:09;96635.28;;;-11.12;89.86
55032;BME280;40928;51.076;7.950;2022-12-16T08:53:53;96630.63;;;-11.07;90.04
55032;BME280;40928;51.076;7.950;2022-12-16T08:56:37;96634.59;;;-11.03;90.32
55032;BME280;40928;51.076;7.950;2022-12-16T08:59:21;96644.25;;;-10.94;91.31
55032;BME280;40928;51.076;7.950;2022-12-16T09:02:04;96635.72;;;-10.83;91.36
55032;BME280;40928;51.076;7.950;2022-12-16T09:04:48;96643.47;;;-10.72;91.34
55032;BME280;40928;51.076;7.950;2022-12-16T09:07:32;96648.06;;;-10.52;91.12
55032;BME280;40928;51.076;7.950;2022-12-16T09:10:16;96646.41;;;-10.31;90.79
55032;BME280;40928;51.076;7.950;2022-12-16T09:13:09;96641.31;;;-9.98;90.52
55032;BME280;40928;51.076;7.950;2022-12-16T09:15:53;96648.47;;;-9.46;90.73
55032;BME280;40928;51.076;7.950;2022-12-16T09:18:37;96651.19;;;-8.94;90.40
55032;BME280;40928;51.076;7.950;2022-12-16T09:21:22;96645.88;;;-8.50;86.69
55032;BME280;40928;51.076;7.950;2022-12-16T09:24:06;96650.22;;;-8.10;84.84
55032;BME280;40928;51.076;7.950;2022-12-16T09:26:50;96649.00;;;-7.65;83.14
55032;BME280;40928;51.076;7.950;2022-12-16T09:29:34;96656.69;;;-7.24;80.86
55032;BME280;40928;51.076;7.950;2022-12-16T09:32:18;96646.69;;;-6.90;79.25
55032;BME280;40928;51.076;7.950;2022-12-16T09:35:02;96654.16;;;-6.57;77.28
55032;BME280;40928;51.076;7.950;2022-12-16T09:37:47;96651.81;;;-6.13;75.69
55032;BME280;40928;51.076;7.950;2022-12-16T09:40:31;96649.13;;;-5.93;75.57
55032;BME280;40928;51.076;7.950;2022-12-16T09:46:21;96653.25;;;-5.26;72.54
55032;BME280;40928;51.076;7.950;2022-12-16T09:49:18;96662.00;;;-4.73;69.96
55032;BME280;40928;51.076;7.950;2022-12-16T09:52:11;96653.63;;;-4.59;70.64
55032;BME280;40928;51.076;7.950;2022-12-16T09:54:57;96671.63;;;-4.21;71.14
55032;BME280;40928;51.076;7.950;2022-12-16T09:57:42;96662.97;;;-3.87;71.17
55032;BME280;40928;51.076;7.950;2022-12-16T10:00:27;96670.28;;;-3.56;68.50
55032;BME280;40928;51.076;7.950;2022-12-16T10:03:20;96671.38;;;-3.15;69.38
55032;BME280;40928;51.076;7.950;2022-12-16T10:06:22;96671.22;;;-2.72;65.93
55032;BME280;40928;51.076;7.950;2022-12-16T10:09:28;96672.81;;;-2.22;64.53
55032;BME280;40928;51.076;7.950;2022-12-16T10:15:41;96677.69;;;-1.54;64.32
55032;BME280;40928;51.076;7.950;2022-12-16T10:21:24;96679.56;;;-1.08;63.93
55032;BME280;40928;51.076;7.950;2022-12-16T10:27:47;96674.72;;;-0.50;62.47
55032;BME280;40928;51.076;7.950;2022-12-16T10:30:34;96678.56;;;-0.22;60.29
55032;BME280;40928;51.076;7.950;2022-12-16T10:33:20;96681.88;;;0.25;60.04
55032;BME280;40928;51.076;7.950;2022-12-16T10:36:10;96681.75;;;0.33;59.59
55032;BME280;40928;51.076;7.950;2022-12-16T10:39:03;96679.44;;;0.75;58.78
55032;BME280;40928;51.076;7.950;2022-12-16T10:41:51;96683.94;;;1.18;57.46
55032;BME280;40928;51.076;7.950;2022-12-16T10:44:54;96689.13;;;1.33;58.52
55032;BME280;40928;51.076;7.950;2022-12-16T10:47:41;96689.66;;;1.72;58.89
55032;BME280;40928;51.076;7.950;2022-12-16T10:50:25;96683.28;;;1.81;59.01
55032;BME280;40928;51.076;7.950;2022-12-16T10:53:24;96682.94;;;1.91;58.12
55032;BME280;40928;51.076;7.950;2022-12-16T10:59:39;96692.84;;;2.59;57.63
55032;BME280;40928;51.076;7.950;2022-12-16T11:02:26;96696.91;;;3.17;54.57
55032;BME280;40928;51.076;7.950;2022-12-16T11:08:23;96701.00;;;3.33;55.23
55032;BME280;40928;51.076;7.950;2022-12-16T11:14:24;96694.94;;;3.59;53.95
55032;BME280;40928;51.076;7.950;2022-12-16T11:17:21;96699.00;;;3.82;53.42
55032;BME280;40928;51.076;7.950;2022-12-16T11:20:23;96696.09;;;4.24;51.70
55032;BME280;40928;51.076;7.950;2022-12-16T11:23:25;96707.06;;;4.41;52.81
55032;BME280;40928;51.076;7.950;2022-12-16T11:26:15;96700.31;;;4.52;52.31
55032;BME280;40928;51.076;7.950;2022-12-16T11:29:17;96711.19;;;3.83;54.74
55032;BME280;40928;51.076;7.950;2022-12-16T11:34:57;96697.72;;;4.25;52.41
55032;BME280;40928;51.076;7.950;2022-12-16T11:37:43;96705.47;;;4.26;53.62
55032;BME280;40928;51.076;7.950;2022-12-16T11:40:28;96710.91;;;4.38;53.07
55032;BME280;40928;51.076;7.950;2022-12-16T11:43:14;96711.56;;;4.27;52.93
55032;BME280;40928;51.076;7.950;2022-12-16T11:46:02;96712.97;;;4.23;53.60
55032;BME280;40928;51.076;7.950;2022-12-16T11:48:51;96721.56;;;3.91;54.18
55032;BME280;40928;51.076;7.950;2022-12-16T11:51:38;96719.72;;;3.99;53.72
55032;BME280;40928;51.076;7.950;2022-12-16T11:54:26;96714.59;;;4.24;53.75
55032;BME280;40928;51.076;7.950;2022-12-16T11:57:19;96715.66;;;4.09;54.52
55032;BME280;40928;51.076;7.950;2022-12-16T12:00:06;96722.94;;;4.21;54.36
55032;BME280;40928;51.076;7.950;2022-12-16T12:06:18;96720.53;;;3.92;56.02
55032;BME280;40928;51.076;7.950;2022-12-16T12:09:16;96725.22;;;3.97;55.04
55032;BME280;40928;51.076;7.950;2022-12-16T12:15:24;96735.38;;;2.49;60.08
55032;BME280;40928;51.076;7.950;2022-12-16T12:21:21;96732.91;;;1.41;65.20
55032;BME280;40928;51.076;7.950;2022-12-16T12:24:27;96738.03;;;1.05;67.39
55032;BME280;40928;51.076;7.950;2022-12-16T12:27:23;96744.44;;;0.66;69.11
55032;BME280;40928;51.076;7.950;2022-12-16T12:30:18;96739.63;;;0.40;70.83
55032;BME280;40928;51.076;7.950;2022-12-16T12:36:34;96744.41;;;-0.09;73.52
55032;BME280;40928;51.076;7.950;2022-12-16T12:39:23;96744.44;;;-0.32;75.91
55032;BME280;40928;51.076;7.950;2022-12-16T12:51:23;96744.34;;;-0.94;78.39
55032;BME280;40928;51.076;7.950;2022-12-16T12:54:17;96743.53;;;-1.26;83.26
55032;BME280;40928;51.076;7.950;2022-12-16T12:57:08;96753.22;;;-1.34;82.93
55032;BME280;40928;51.076;7.950;2022-12-16T13:00:01;96759.50;;;-1.44;83.29
55032;BME280;40928;51.076;7.950;2022-12-16T13:02:55;96765.25;;;-1.48;83.10
55032;BME280;40928;51.076;7.950;2022-12-16T13:05:43;96764.09;;;-1.54;83.46
55032;BME280;40928;51.076;7.950;2022-12-16T13:11:20;96768.06;;;-1.58;85.80
55032;BME280;40928;51.076;7.950;2022-12-16T13:17:15;96768.53;;;-1.63;83.66
55032;BME280;40928;51.076;7.950;2022-12-16T13:20:00;96761.84;;;-1.65;83.48
55032;BME280;40928;51.076;7.950;2022-12-16T13:22:45;96760.06;;;-1.65;83.39
55032;BME280;40928;51.076;7.950;2022-12-16T13:25:51;96768.47;;;-1.46;83.91
55032;BME280;40928;51.076;7.950;2022-12-16T13:28:37;96769.13;;;-0.96;81.93
55032;BME280;40928;51.076;7.950;2022-12-16T13:31:23;96763.31;;;-0.37;78.83
55032;BME280;40928;51.076;7.950;2022-12-16T13:36:58;96766.19;;;0.45;73.33
55032;BME280;40928;51.076;7.950;2022-12-16T13:40:03;96776.72;;;0.60;71.80
55032;BME280;40928;51.076;7.950;2022-12-16T13:42:50;96773.16;;;0.23;71.89
55032;BME280;40928;51.076;7.950;2022-12-16T13:45:40;96782.28;;;-0.26;79.03
55032;BME280;40928;51.076;7.950;2022-12-16T13:48:39;96784.81;;;-0.65;76.58
55032;BME280;40928;51.076;7.950;2022-12-16T13:54:41;96804.78;;;-1.27;81.09
55032;BME280;40928;51.076;7.950;2022-12-16T13:57:29;96801.69;;;-1.39;82.15
55032;BME280;40928;51.076;7.950;2022-12-16T14:00:18;96798.81;;;-1.60;79.96
55032;BME280;40928;51.076;7.950;2022-12-16T14:03:03;96814.22;;;-1.82;81.75
55032;BME280;40928;51.076;7.950;2022-12-16T14:05:53;96812.13;;;-2.03;83.26
55032;BME280;40928;51.076;7.950;2022-12-16T14:08:38;96814.41;;;-2.17;82.02
55032;BME280;40928;51.076;7.950;2022-12-16T14:12:15;96817.19;;;-2.35;81.34
55032;BME280;40928;51.076;7.950;2022-12-16T14:14:54;96827.28;;;-2.65;83.49
55032;BME280;40928;51.076;7.950;2022-12-16T14:17:50;96832.28;;;-2.80;84.16
55032;BME280;40928;51.076;7.950;2022-12-16T14:20:49;96835.34;;;-2.93;84.09
55032;BME280;40928;51.076;7.950;2022-12-16T14:24:00;96842.66;;;-3.04;84.19
55032;BME280;40928;51.076;7.950;2022-12-16T14:26:49;96844.53;;;-3.23;85.40
55032;BME280;40928;51.076;7.950;2022-12-16T14:29:33;96839.72;;;-3.36;85.91
55032;BME280;40928;51.076;7.950;2022-12-16T14:32:27;96844.03;;;-3.53;86.72
55032;BME280;40928;51.076;7.950;2022-12-16T14:35:23;96848.41;;;-3.62;87.71
55032;BME280;40928;51.076;7.950;2022-12-16T14:38:27;96850.94;;;-3.70;86.66
55032;BME280;40928;51.076;7.950;2022-12-16T14:41:21;96859.19;;;-3.83;86.76
55032;BME280;40928;51.076;7.950;2022-12-16T14:44:32;96855.53;;;-3.90;87.33
55032;BME280;40928;51.076;7.950;2022-12-16T14:47:18;96859.06;;;-4.00;87.97
55032;BME280;40928;51.076;7.950;2022-12-16T14:50:17;96864.94;;;-4.16;88.87
55032;BME280;40928;51.076;7.950;2022-12-16T14:53:23;96868.81;;;-4.20;88.12
55032;BME280;40928;51.076;7.950;2022-12-16T14:56:21;96872.78;;;-4.34;88.43
55032;BME280;40928;51.076;7.950;2022-12-16T14:59:16;96873.50;;;-4.41;88.79
55032;BME280;40928;51.076;7.950;2022-12-16T15:02:29;96876.69;;;-4.48;89.48
55032;BME280;40928;51.076;7.950;2022-12-16T15:05:14;96879.22;;;-4.56;88.88
55032;BME280;40928;51.076;7.950;2022-12-16T15:07:58;96887.34;;;-4.59;88.44
55032;BME280;40928;51.076;7.950;2022-12-16T15:10:43;96879.44;;;-4.67;88.82
55032;BME280;40928;51.076;7.950;2022-12-16T15:13:27;96882.19;;;-4.69;89.77
55032;BME280;40928;51.076;7.950;2022-12-16T15:16:23;96894.16;;;-4.76;89.36
55032;BME280;40928;51.076;7.950;2022-12-16T15:19:17;96892.13;;;-4.82;89.28
55032;BME280;40928;51.076;7.950;2022-12-16T15:22:04;96899.53;;;-4.87;88.99
55032;BME280;40928;51.076;7.950;2022-12-16T15:24:48;96904.50;;;-4.94;89.68
55032;BME280;40928;51.076;7.950;2022-12-16T15:27:36;96908.28;;;-5.07;91.39
55032;BME280;40928;51.076;7.950;2022-12-16T15:30:38;96909.63;;;-5.02;90.58
55032;BME280;40928;51.076;7.950;2022-12-16T15:33:28;96912.50;;;-5.06;89.75
55032;BME280;40928;51.076;7.950;2022-12-16T15:36:27;96918.03;;;-5.18;89.96
55032;BME280;40928;51.076;7.950;2022-12-16T15:39:35;96920.66;;;-5.28;90.47